createdAt,value
2022-12-09T00:01:12.726Z,0.94
2022-12-09T00:03:40.275Z,0.96
2022-12-09T00:06:25.140Z,0.96
2022-12-09T00:08:54.956Z,0.94
2022-12-09T00:11:21.929Z,0.92
2022-12-09T00:13:50.429Z,0.94
2022-12-09T00:16:17.758Z,0.93
2022-12-09T00:18:44.918Z,0.85
2022-12-09T00:21:25.941Z,0.85
2022-12-09T00:23:54.147Z,0.86
2022-12-09T00:26:25.492Z,0.71
2022-12-09T00:28:53.236Z,0.79
2022-12-09T00:31:24.687Z,0.87
2022-12-09T00:33:53.244Z,0.88
2022-12-09T00:36:21.876Z,0.87
2022-12-09T00:38:49.004Z,0.86
2022-12-09T00:41:16.046Z,0.74
2022-12-09T00:43:43.773Z,0.76
2022-12-09T00:46:12.505Z,0.80
2022-12-09T00:48:39.723Z,0.82
2022-12-09T00:51:08.207Z,0.78
2022-12-09T00:53:35.235Z,0.75
2022-12-09T00:56:02.267Z,0.76
2022-12-09T00:58:29.130Z,0.74
2022-12-09T01:00:56.289Z,0.73
2022-12-09T01:03:26.211Z,0.76
2022-12-09T01:05:53.111Z,0.79
2022-12-09T01:08:19.886Z,0.80
2022-12-09T01:10:47.353Z,0.84
2022-12-09T01:13:18.192Z,0.73
2022-12-09T01:15:45.371Z,0.78
2022-12-09T01:18:14.144Z,0.75
2022-12-09T01:20:40.997Z,0.74
2022-12-09T01:23:07.699Z,0.69
2022-12-09T01:25:34.363Z,0.74
2022-12-09T01:28:01.049Z,0.75
2022-12-09T01:30:27.791Z,0.74
2022-12-09T01:32:54.614Z,0.74
2022-12-09T01:35:21.788Z,0.76
2022-12-09T01:37:48.506Z,0.64
2022-12-09T01:40:17.751Z,0.73
2022-12-09T01:42:45.035Z,0.76
2022-12-09T01:45:21.569Z,0.77
2022-12-09T01:47:55.076Z,0.77
2022-12-09T01:50:22.515Z,0.76
2022-12-09T01:52:50.547Z,0.76
2022-12-09T01:55:18.131Z,0.79
2022-12-09T01:57:45.691Z,0.77
2022-12-09T02:00:13.664Z,0.76
2022-12-09T02:02:41.870Z,0.77
2022-12-09T02:05:09.456Z,0.75
2022-12-09T02:07:36.393Z,0.77
2022-12-09T02:10:06.564Z,0.78
2022-12-09T02:12:36.904Z,0.80
2022-12-09T02:15:09.007Z,0.81
2022-12-09T02:17:48.815Z,0.84
2022-12-09T02:20:23.725Z,0.82
2022-12-09T02:23:11.063Z,0.81
2022-12-09T02:25:57.432Z,0.79
2022-12-09T02:28:52.188Z,0.73
2022-12-09T02:31:21.853Z,0.72
2022-12-09T02:33:54.351Z,0.74
2022-12-09T02:36:27.846Z,0.77
2022-12-09T02:38:54.656Z,0.76
2022-12-09T02:41:29.366Z,0.77
2022-12-09T02:44:04.394Z,0.76
2022-12-09T02:46:32.953Z,0.68
2022-12-09T02:49:00.545Z,0.73
2022-12-09T02:51:30.983Z,0.74
2022-12-09T02:54:04.120Z,0.70
2022-12-09T02:56:32.411Z,0.71
2022-12-09T02:58:59.171Z,0.70
2022-12-09T03:01:42.907Z,0.68
2022-12-09T03:04:17.790Z,0.69
2022-12-09T03:06:51.588Z,0.68
2022-12-09T03:09:27.487Z,0.67
2022-12-09T03:11:56.297Z,0.66
2022-12-09T03:14:29.698Z,0.67
2022-12-09T03:17:26.038Z,0.67
2022-12-09T03:20:00.886Z,0.63
2022-12-09T03:22:29.604Z,0.63
2022-12-09T03:25:08.750Z,0.55
2022-12-09T03:27:53.664Z,0.52
2022-12-09T03:30:20.565Z,0.51
2022-12-09T03:32:48.037Z,0.55
2022-12-09T03:35:21.369Z,0.58
2022-12-09T03:37:51.287Z,0.60
2022-12-09T03:40:24.338Z,0.62
2022-12-09T03:43:05.523Z,0.58
2022-12-09T03:45:33.455Z,0.64
2022-12-09T03:48:02.123Z,0.63
2022-12-09T03:50:36.035Z,0.56
2022-12-09T03:53:21.534Z,0.49
2022-12-09T03:55:56.252Z,0.46
2022-12-09T03:58:23.587Z,0.46
2022-12-09T04:00:51.132Z,0.47
2022-12-09T04:03:18.824Z,0.45
2022-12-09T04:05:45.869Z,0.46
2022-12-09T04:08:12.938Z,0.47
2022-12-09T04:10:39.769Z,0.48
2022-12-09T04:13:06.785Z,0.46
2022-12-09T04:15:33.501Z,0.43
2022-12-09T04:18:00.609Z,0.40
2022-12-09T04:20:30.423Z,0.36
2022-12-09T04:22:57.244Z,0.36
2022-12-09T04:25:23.907Z,0.35
2022-12-09T04:27:50.589Z,0.33
2022-12-09T04:30:17.231Z,0.31
2022-12-09T04:32:44.288Z,0.29
2022-12-09T04:35:11.312Z,0.27
2022-12-09T04:37:38.508Z,0.24
2022-12-09T04:40:07.842Z,0.22
2022-12-09T04:42:34.800Z,0.23
2022-12-09T04:45:02.232Z,0.25
2022-12-09T04:47:29.397Z,0.25
2022-12-09T04:49:56.384Z,0.24
2022-12-09T04:52:23.454Z,0.27
2022-12-09T04:54:51.044Z,0.23
2022-12-09T04:57:19.011Z,0.22
2022-12-09T04:59:45.841Z,0.21
2022-12-09T05:02:15.808Z,0.19
2022-12-09T05:04:43.192Z,0.18
2022-12-09T05:07:11.271Z,0.14
2022-12-09T05:09:38.584Z,0.13
2022-12-09T05:12:05.922Z,0.12
2022-12-09T05:14:32.863Z,0.13
2022-12-09T05:16:59.528Z,0.18
2022-12-09T05:19:26.580Z,0.22
2022-12-09T05:21:56.332Z,0.24
2022-12-09T05:24:23.156Z,0.25
2022-12-09T05:26:50.736Z,0.26
2022-12-09T05:29:22.801Z,0.30
2022-12-09T05:31:51.778Z,0.32
2022-12-09T05:34:19.404Z,0.28
2022-12-09T05:36:46.788Z,0.31
2022-12-09T05:39:13.949Z,0.33
2022-12-09T05:41:40.651Z,0.35
2022-12-09T05:44:07.594Z,0.33
2022-12-09T05:46:34.463Z,0.35
2022-12-09T05:49:01.373Z,0.33
2022-12-09T05:51:30.598Z,0.32
2022-12-09T05:54:01.162Z,0.31
2022-12-09T05:56:28.393Z,0.32
2022-12-09T05:58:56.511Z,0.31
2022-12-09T06:01:25.002Z,0.33
2022-12-09T06:03:53.105Z,0.25
2022-12-09T06:06:22.819Z,0.25
2022-12-09T06:08:50.156Z,0.26
2022-12-09T06:11:21.938Z,0.28
2022-12-09T06:13:50.677Z,0.31
2022-12-09T06:16:19.810Z,0.31
2022-12-09T06:18:47.598Z,0.34
2022-12-09T06:21:16.979Z,0.36
2022-12-09T06:23:43.739Z,0.37
2022-12-09T06:26:17.919Z,0.39
2022-12-09T06:28:45.086Z,0.40
2022-12-09T06:31:12.304Z,0.42
2022-12-09T06:33:54.966Z,0.43
2022-12-09T06:36:23.522Z,0.43
2022-12-09T06:38:50.245Z,0.44
2022-12-09T06:41:17.173Z,0.48
2022-12-09T06:43:44.693Z,0.47
2022-12-09T06:46:17.157Z,0.52
2022-12-09T06:48:44.785Z,0.48
2022-12-09T06:51:12.116Z,0.46
2022-12-09T06:53:39.180Z,0.45
2022-12-09T06:56:11.789Z,0.39
2022-12-09T06:58:41.522Z,0.42
2022-12-09T07:01:13.823Z,0.40
2022-12-09T07:03:45.817Z,0.40
2022-12-09T07:06:37.309Z,0.46
2022-12-09T07:09:08.920Z,0.56
2022-12-09T07:11:36.839Z,0.49
2022-12-09T07:14:04.439Z,0.47
2022-12-09T07:16:31.973Z,0.48
2022-12-09T07:18:59.279Z,0.41
2022-12-09T07:21:27.032Z,0.40
2022-12-09T07:23:55.355Z,0.31
2022-12-09T07:26:22.296Z,0.41
2022-12-09T07:28:50.495Z,0.49
2022-12-09T07:31:26.591Z,0.50
2022-12-09T07:33:55.410Z,0.51
2022-12-09T07:36:25.116Z,0.48
2022-12-09T07:39:03.381Z,0.48
2022-12-09T07:41:30.461Z,0.50
2022-12-09T07:43:57.438Z,0.54
2022-12-09T07:46:27.581Z,0.57
2022-12-09T07:48:56.255Z,0.63
2022-12-09T07:51:25.128Z,0.55
2022-12-09T07:53:52.559Z,0.51
2022-12-09T07:56:20.350Z,0.52
2022-12-09T07:58:48.729Z,0.47
2022-12-09T08:01:18.191Z,0.50
2022-12-09T08:03:45.822Z,0.47
2022-12-09T08:06:16.159Z,0.53
2022-12-09T08:08:44.303Z,0.53
2022-12-09T08:11:17.154Z,0.53
2022-12-09T08:13:44.411Z,0.55
2022-12-09T08:16:13.510Z,0.57
2022-12-09T08:18:42.155Z,0.58
2022-12-09T08:21:13.217Z,0.59
2022-12-09T08:23:40.426Z,0.63
2022-12-09T08:26:10.400Z,0.64
2022-12-09T08:28:37.305Z,0.65
2022-12-09T08:31:16.798Z,0.68
2022-12-09T08:33:44.838Z,0.72
2022-12-09T08:36:33.816Z,0.75
2022-12-09T08:39:02.134Z,0.73
2022-12-09T08:41:38.489Z,0.75
2022-12-09T08:44:11.561Z,0.68
2022-12-09T08:46:41.080Z,0.73
2022-12-09T08:49:09.129Z,0.76
2022-12-09T08:51:36.630Z,0.79
2022-12-09T08:54:04.290Z,0.81
2022-12-09T08:56:31.387Z,0.86
2022-12-09T08:59:01.514Z,0.91
2022-12-09T09:01:33.010Z,0.87
2022-12-09T09:04:09.974Z,0.88
2022-12-09T09:06:39.539Z,0.91
2022-12-09T09:09:09.009Z,0.90
2022-12-09T09:11:36.532Z,0.93
2022-12-09T09:14:09.220Z,0.96
2022-12-09T09:16:39.818Z,1.02
2022-12-09T09:19:07.941Z,0.97
2022-12-09T09:21:35.862Z,0.96
2022-12-09T09:24:07.911Z,0.99
2022-12-09T09:26:35.013Z,1.05
2022-12-09T09:29:02.083Z,1.11
2022-12-09T09:31:29.013Z,1.09
2022-12-09T09:33:55.914Z,1.12
2022-12-09T09:36:25.068Z,1.19
2022-12-09T09:38:55.082Z,1.10
2022-12-09T09:41:47.220Z,1.18
2022-12-09T09:44:23.303Z,1.25
2022-12-09T09:46:52.528Z,1.28
2022-12-09T09:49:36.880Z,1.20
2022-12-09T09:52:18.472Z,1.19
2022-12-09T09:54:45.831Z,1.21
2022-12-09T09:57:40.428Z,1.19
2022-12-09T10:00:46.864Z,1.22
2022-12-09T10:03:41.049Z,1.24
2022-12-09T10:06:36.700Z,1.28
2022-12-09T10:09:11.348Z,1.33
2022-12-09T10:11:56.276Z,1.38
2022-12-09T10:14:36.386Z,1.37
2022-12-09T10:17:15.559Z,1.36
2022-12-09T10:19:56.868Z,1.30
2022-12-09T10:22:29.123Z,1.29
2022-12-09T10:24:59.925Z,1.41
2022-12-09T10:27:45.297Z,1.49
2022-12-09T10:30:15.694Z,1.57
2022-12-09T10:32:43.197Z,1.56
2022-12-09T10:35:30.848Z,1.43
2022-12-09T10:38:10.397Z,1.49
2022-12-09T10:40:37.067Z,1.40
2022-12-09T10:43:41.272Z,1.40
2022-12-09T10:46:22.054Z,1.51
2022-12-09T10:48:50.339Z,1.58
2022-12-09T10:51:19.609Z,1.67
2022-12-09T10:53:56.995Z,1.56
2022-12-09T10:56:30.119Z,1.69
2022-12-09T10:59:22.460Z,1.69
2022-12-09T11:01:52.703Z,1.76
2022-12-09T11:04:29.491Z,1.78
2022-12-09T11:07:05.402Z,1.76
2022-12-09T11:09:38.551Z,1.74
2022-12-09T11:12:13.233Z,1.76
2022-12-09T11:14:49.153Z,1.78
2022-12-09T11:17:15.941Z,1.80
2022-12-09T11:19:47.056Z,1.71
2022-12-09T11:22:32.711Z,1.65
2022-12-09T11:25:23.799Z,1.65
2022-12-09T11:28:00.586Z,1.71
2022-12-09T11:30:32.670Z,1.73
2022-12-09T11:33:06.091Z,1.74
2022-12-09T11:35:45.063Z,1.70
2022-12-09T11:38:30.412Z,1.69
2022-12-09T11:41:11.145Z,1.68
2022-12-09T11:43:56.499Z,1.76
2022-12-09T11:46:27.928Z,1.75
2022-12-09T11:49:15.838Z,1.81
2022-12-09T11:51:46.896Z,1.86
2022-12-09T11:54:18.853Z,1.89
2022-12-09T11:56:50.187Z,1.87
2022-12-09T11:59:26.196Z,1.71
2022-12-09T12:02:11.499Z,1.84
2022-12-09T12:05:02.106Z,1.72
2022-12-09T12:07:47.149Z,1.61
2022-12-09T12:10:23.272Z,1.62
2022-12-09T12:13:14.888Z,1.64
2022-12-09T12:15:57.882Z,1.49
2022-12-09T12:18:29.188Z,1.64
2022-12-09T12:21:26.260Z,1.66
2022-12-09T12:24:17.356Z,1.69
2022-12-09T12:27:04.167Z,1.70
2022-12-09T12:29:59.462Z,1.73
2022-12-09T12:33:11.865Z,1.71
2022-12-09T12:36:11.218Z,1.60
2022-12-09T12:39:03.390Z,1.54
2022-12-09T12:41:37.027Z,1.52
2022-12-09T12:44:56.611Z,1.54
2022-12-09T12:47:42.268Z,1.53
2022-12-09T12:50:30.255Z,1.51
2022-12-09T12:53:05.937Z,1.47
2022-12-09T12:55:50.320Z,1.45
2022-12-09T12:58:19.661Z,1.46
2022-12-09T13:01:15.757Z,1.33
2022-12-09T13:04:06.215Z,1.42
2022-12-09T13:06:51.300Z,1.44
2022-12-09T13:09:20.923Z,1.42
2022-12-09T13:12:19.713Z,1.44
2022-12-09T13:14:54.591Z,1.52
2022-12-09T13:17:27.112Z,1.58
2022-12-09T13:19:58.584Z,1.69
2022-12-09T13:22:33.339Z,1.66
2022-12-09T13:25:11.909Z,1.96
2022-12-09T13:27:52.559Z,2.10
2022-12-09T13:30:27.034Z,2.22
2022-12-09T13:33:30.897Z,2.21
2022-12-09T13:36:35.927Z,2.46
2022-12-09T13:39:03.574Z,2.31
2022-12-09T13:41:30.111Z,2.35
2022-12-09T13:44:05.797Z,2.22
2022-12-09T13:46:33.729Z,2.19
2022-12-09T13:49:11.096Z,2.05
2022-12-09T13:51:46.685Z,2.05
2022-12-09T13:54:17.586Z,2.00
2022-12-09T13:56:48.007Z,2.04
2022-12-09T13:59:40.709Z,2.07
2022-12-09T14:02:31.521Z,2.04
2022-12-09T14:05:18.828Z,2.06
2022-12-09T14:07:51.186Z,2.07
2022-12-09T14:10:37.086Z,1.96
2022-12-09T14:13:26.669Z,1.99
2022-12-09T14:16:15.169Z,1.99
2022-12-09T14:18:42.509Z,1.94
2022-12-09T14:21:18.338Z,1.97
2022-12-09T14:24:11.266Z,1.89
2022-12-09T14:26:43.629Z,1.87
2022-12-09T14:29:10.463Z,1.90
2022-12-09T14:31:45.381Z,1.84
2022-12-09T14:34:34.860Z,1.77
2022-12-09T14:37:28.378Z,1.71
2022-12-09T14:40:03.146Z,1.67
2022-12-09T14:42:41.769Z,1.61
2022-12-09T14:45:28.242Z,1.61
2022-12-09T14:47:56.189Z,1.51
2022-12-09T14:50:24.846Z,1.45
2022-12-09T14:53:01.713Z,1.41
2022-12-09T14:55:30.367Z,1.40
2022-12-09T14:58:00.035Z,1.40
2022-12-09T15:00:41.638Z,1.35
2022-12-09T15:03:33.130Z,1.31
2022-12-09T15:06:05.001Z,1.27
2022-12-09T15:08:37.380Z,1.17
2022-12-09T15:11:34.135Z,1.12
2022-12-09T15:14:23.501Z,1.08
2022-12-09T15:16:50.972Z,1.05
2022-12-09T15:19:51.048Z,1.06
2022-12-09T15:22:24.485Z,1.01
2022-12-09T15:24:52.610Z,1.01
2022-12-09T15:27:22.541Z,1.01
2022-12-09T15:29:49.979Z,1.01
2022-12-09T15:32:26.199Z,0.96
2022-12-09T15:34:54.395Z,0.97
2022-12-09T15:37:28.135Z,0.97
2022-12-09T15:40:10.413Z,0.97
2022-12-09T15:42:41.423Z,0.94
2022-12-09T15:45:15.469Z,0.90
2022-12-09T15:47:56.134Z,0.88
2022-12-09T15:50:46.449Z,0.90
2022-12-09T15:53:16.837Z,0.88
2022-12-09T15:55:51.624Z,0.91
2022-12-09T15:58:28.137Z,0.91
2022-12-09T16:00:55.325Z,0.90
2022-12-09T16:03:26.114Z,0.84
2022-12-09T16:05:55.716Z,0.81
2022-12-09T16:08:23.149Z,0.80
2022-12-09T16:10:51.819Z,0.73
2022-12-09T16:13:21.278Z,0.72
2022-12-09T16:15:52.660Z,0.67
2022-12-09T16:18:25.921Z,0.64
2022-12-09T16:21:17.842Z,0.65
2022-12-09T16:23:47.347Z,0.63
2022-12-09T16:26:23.722Z,0.66
2022-12-09T16:28:59.708Z,0.69
2022-12-09T16:31:26.846Z,0.68
2022-12-09T16:33:54.056Z,0.68
2022-12-09T16:36:28.895Z,0.65
2022-12-09T16:39:07.567Z,0.70
2022-12-09T16:41:52.299Z,0.64
2022-12-09T16:44:31.637Z,0.63
2022-12-09T16:47:12.089Z,0.62
2022-12-09T16:49:40.603Z,0.67
2022-12-09T16:52:11.444Z,0.64
2022-12-09T16:54:38.501Z,0.66
2022-12-09T16:57:05.148Z,0.67
2022-12-09T16:59:37.598Z,0.65
2022-12-09T17:02:09.390Z,0.66
2022-12-09T17:04:36.091Z,0.63
2022-12-09T17:07:02.747Z,0.64
2022-12-09T17:09:29.531Z,0.66
2022-12-09T17:11:56.141Z,0.59
2022-12-09T17:14:22.739Z,0.61
2022-12-09T17:16:49.404Z,0.68
2022-12-09T17:19:16.206Z,0.67
2022-12-09T17:21:42.833Z,0.63
2022-12-09T17:24:11.669Z,0.59
2022-12-09T17:26:38.349Z,0.58
2022-12-09T17:29:07.220Z,0.61
2022-12-09T17:31:33.843Z,0.61
2022-12-09T17:34:00.515Z,0.65
2022-12-09T17:36:27.149Z,0.66
2022-12-09T17:38:53.917Z,0.67
2022-12-09T17:41:23.562Z,0.66
2022-12-09T17:43:50.355Z,0.70
2022-12-09T17:46:17.107Z,0.73
2022-12-09T17:48:43.808Z,0.73
2022-12-09T17:51:13.593Z,0.75
2022-12-09T17:53:41.831Z,0.76
2022-12-09T17:56:13.706Z,0.73
2022-12-09T17:58:40.788Z,0.79
2022-12-09T18:01:20.132Z,0.70
2022-12-09T18:03:55.973Z,0.66
2022-12-09T18:06:26.188Z,0.69
2022-12-09T18:08:53.598Z,0.63
2022-12-09T18:11:22.377Z,0.65
2022-12-09T18:13:50.110Z,0.60
2022-12-09T18:16:17.150Z,0.65
2022-12-09T18:18:44.088Z,0.61
2022-12-09T18:21:15.600Z,0.68
2022-12-09T18:23:43.062Z,0.68
2022-12-09T18:26:13.079Z,0.65
2022-12-09T18:28:40.441Z,0.69
2022-12-09T18:31:08.677Z,0.68
2022-12-09T18:33:36.616Z,0.66
2022-12-09T18:36:21.506Z,0.66
2022-12-09T18:38:48.659Z,0.68
2022-12-09T18:41:20.450Z,0.67
2022-12-09T18:43:48.855Z,0.74
2022-12-09T18:46:25.940Z,0.70
2022-12-09T18:49:23.907Z,0.68
2022-12-09T18:51:52.766Z,0.65
2022-12-09T18:54:26.533Z,0.58
2022-12-09T18:56:54.520Z,0.57
2022-12-09T18:59:22.863Z,0.48
2022-12-09T19:01:50.043Z,0.52
2022-12-09T19:04:19.477Z,0.51
2022-12-09T19:06:47.476Z,0.43
2022-12-09T19:09:20.023Z,0.44
2022-12-09T19:11:48.328Z,0.45
2022-12-09T19:14:16.705Z,0.45
2022-12-09T19:16:43.833Z,0.46
2022-12-09T19:19:16.015Z,0.45
2022-12-09T19:21:43.110Z,0.46
2022-12-09T19:24:18.417Z,0.47
2022-12-09T19:26:45.325Z,0.49
2022-12-09T19:29:13.285Z,0.49
2022-12-09T19:31:45.533Z,0.49
2022-12-09T19:34:13.642Z,0.49
2022-12-09T19:36:40.697Z,0.51
2022-12-09T19:39:08.680Z,0.53
2022-12-09T19:41:37.167Z,0.53
2022-12-09T19:44:04.987Z,0.50
2022-12-09T19:46:32.218Z,0.51
2022-12-09T19:48:59.425Z,0.50
2022-12-09T19:51:27.283Z,0.50
2022-12-09T19:53:55.848Z,0.51
2022-12-09T19:56:22.995Z,0.53
2022-12-09T19:58:50.097Z,0.50
2022-12-09T20:01:22.790Z,0.48
2022-12-09T20:03:52.330Z,0.49
2022-12-09T20:06:19.495Z,0.44
2022-12-09T20:08:46.810Z,0.47
2022-12-09T20:11:16.552Z,0.49
2022-12-09T20:13:43.814Z,0.52
2022-12-09T20:16:14.245Z,0.49
2022-12-09T20:18:41.213Z,0.49
2022-12-09T20:21:10.266Z,0.50
2022-12-09T20:23:38.903Z,0.51
2022-12-09T20:26:16.496Z,0.45
2022-12-09T20:28:44.714Z,0.41
2022-12-09T20:31:15.279Z,0.42
2022-12-09T20:33:42.601Z,0.35
2022-12-09T20:36:15.882Z,0.36
2022-12-09T20:38:44.128Z,0.38
2022-12-09T20:41:13.222Z,0.40
2022-12-09T20:43:42.000Z,0.42
2022-12-09T20:46:17.029Z,0.47
2022-12-09T20:48:44.437Z,0.46
2022-12-09T20:51:17.372Z,0.48
2022-12-09T20:53:45.290Z,0.49
2022-12-09T20:56:12.231Z,0.44
2022-12-09T20:58:39.807Z,0.40
2022-12-09T21:01:16.653Z,0.39
2022-12-09T21:03:43.566Z,0.40
2022-12-09T21:06:11.698Z,0.38
2022-12-09T21:08:38.330Z,0.38
2022-12-09T21:11:10.502Z,0.38
2022-12-09T21:13:40.031Z,0.38
2022-12-09T21:16:09.886Z,0.39
2022-12-09T21:18:36.969Z,0.44
2022-12-09T21:21:04.660Z,0.44
2022-12-09T21:23:34.082Z,0.40
2022-12-09T21:26:09.375Z,0.42
2022-12-09T21:28:37.347Z,0.43
2022-12-09T21:31:13.097Z,0.43
2022-12-09T21:33:40.671Z,0.44
2022-12-09T21:36:09.916Z,0.48
2022-12-09T21:38:37.528Z,0.44
2022-12-09T21:41:06.215Z,0.41
2022-12-09T21:43:34.503Z,0.37
2022-12-09T21:46:02.858Z,0.34
2022-12-09T21:48:29.621Z,0.34
2022-12-09T21:50:57.675Z,0.31
2022-12-09T21:53:24.625Z,0.27
2022-12-09T21:55:53.001Z,0.26
2022-12-09T21:58:20.063Z,0.27
2022-12-09T22:00:46.800Z,0.32
2022-12-09T22:03:13.402Z,0.34
2022-12-09T22:05:39.960Z,0.35
2022-12-09T22:08:06.673Z,0.38
2022-12-09T22:10:36.825Z,0.34
2022-12-09T22:13:03.810Z,0.30
2022-12-09T22:15:31.029Z,0.26
2022-12-09T22:17:57.670Z,0.27
2022-12-09T22:21:00.583Z,0.30
2022-12-09T22:23:11.109Z,0.32
2022-12-09T22:25:39.365Z,0.30
2022-12-09T22:28:06.207Z,0.31
2022-12-09T22:30:36.477Z,0.33
2022-12-09T22:33:03.409Z,0.34
2022-12-09T22:35:30.135Z,0.35
2022-12-09T22:37:59.272Z,0.35
2022-12-09T22:40:26.102Z,0.32
2022-12-09T22:42:52.817Z,0.26
2022-12-09T22:45:19.407Z,0.27
2022-12-09T22:47:46.015Z,0.33
2022-12-09T22:50:13.085Z,0.28
2022-12-09T22:52:39.792Z,0.26
2022-12-09T22:55:06.840Z,0.25
2022-12-09T22:57:33.512Z,0.27
2022-12-09T23:00:00.136Z,0.27
2022-12-09T23:02:26.858Z,0.31
2022-12-09T23:04:53.488Z,0.27
2022-12-09T23:07:20.169Z,0.30
2022-12-09T23:09:46.742Z,0.34
2022-12-09T23:12:14.079Z,0.33
2022-12-09T23:14:40.662Z,0.31
2022-12-09T23:17:07.321Z,0.26
2022-12-09T23:19:34.057Z,0.29
2022-12-09T23:22:00.679Z,0.26
2022-12-09T23:24:27.357Z,0.27
2022-12-09T23:26:55.526Z,0.29
2022-12-09T23:29:22.692Z,0.25
2022-12-09T23:31:49.357Z,0.26
2022-12-09T23:34:16.628Z,0.27
2022-12-09T23:36:44.844Z,0.26
2022-12-09T23:39:16.872Z,0.29
2022-12-09T23:41:44.841Z,0.28
2022-12-09T23:44:15.075Z,0.29
2022-12-09T23:46:42.212Z,0.28
2022-12-09T23:49:09.211Z,0.28
2022-12-09T23:51:39.288Z,0.28
2022-12-09T23:54:08.526Z,0.22
2022-12-09T23:56:38.996Z,0.23
2022-12-09T23:59:08.715Z,0.27
